Time,TemperatureF,DewpointF,PressureIn,WindDirection,WindDirectionDegrees,WindSpeedMPH,WindSpeedGustMPH,Humidity,HourlyPrecipIn,Conditions,Clouds,dailyrainin,SoftwareType,DateUTC
2013-12-13 00:04:00,12.9,7.3,29.40,WNW,292,0.0,0.0,78,0.00,,---,0.00,VWS V13.01,2013-12-13 06:04:00,
2013-12-13 00:09:00,12.9,7.3,29.39,WNW,292,0.0,0.0,78,0.00,,---,0.00,VWS V13.01,2013-12-13 06:09:00,
2013-12-13 00:14:00,12.9,7.3,29.39,WNW,292,0.0,0.0,78,0.00,,---,0.00,VWS V13.01,2013-12-13 06:14:00,
2013-12-13 00:19:00,12.9,7.3,29.39,WNW,292,0.0,0.0,78,0.00,,---,0.00,VWS V13.01,2013-12-13 06:19:00,
2013-12-13 00:24:00,12.9,7.6,29.39,WNW,292,0.0,0.0,79,0.00,,---,0.00,VWS V13.01,2013-12-13 06:24:00,
2013-12-13 00:29:00,12.7,7.4,29.39,WNW,292,0.0,0.0,79,0.00,,---,0.00,VWS V13.01,2013-12-13 06:29:00,
2013-12-13 00:34:00,12.7,7.4,29.38,WNW,292,0.0,0.0,79,0.00,,---,0.00,VWS V13.01,2013-12-13 06:34:00,
2013-12-13 00:39:00,12.7,7.4,29.38,WNW,292,0.0,0.0,79,0.00,,---,0.00,VWS V13.01,2013-12-13 06:39:00,
2013-12-13 00:44:00,12.7,7.4,29.38,WNW,292,0.0,0.0,79,0.00,,---,0.00,VWS V13.01,2013-12-13 06:44:00,
2013-12-13 00:49:00,12.7,7.4,29.38,WNW,292,0.0,0.0,79,0.00,,---,0.00,VWS V13.01,2013-12-13 06:49:00,
2013-12-13 00:54:00,12.7,7.4,29.38,WNW,292,0.0,0.0,79,0.00,,---,0.00,VWS V13.01,2013-12-13 06:54:00,
2013-12-13 00:59:00,12.5,7.2,29.38,WNW,292,0.0,0.0,79,0.00,,---,0.00,VWS V13.01,2013-12-13 06:59:00,
2013-12-13 01:07:00,12.5,7.2,29.37,WNW,292,0.0,0.0,79,0.00,,---,0.00,VWS V13.01,2013-12-13 07:07:00,
2013-12-13 01:12:00,12.5,7.2,29.37,WNW,292,0.0,0.0,79,0.00,,---,0.00,VWS V13.01,2013-12-13 07:12:00,
2013-12-13 01:17:00,12.3,7.0,29.37,WNW,292,0.0,0.0,79,0.00,,---,0.00,VWS V13.01,2013-12-13 07:17:00,
2013-12-13 01:22:00,12.3,7.0,29.36,WNW,292,0.0,0.0,79,0.00,,---,0.00,VWS V13.01,2013-12-13 07:22:00,
2013-12-13 01:28:00,12.3,7.0,29.36,WNW,292,0.0,0.0,79,0.00,,---,0.00,VWS V13.01,2013-12-13 07:28:00,
2013-12-13 01:33:00,12.3,7.0,29.36,WNW,292,0.0,0.0,79,0.00,,---,0.00,VWS V13.01,2013-12-13 07:33:00,
2013-12-13 01:38:00,12.2,6.9,29.36,WNW,292,0.0,0.0,79,0.00,,---,0.00,VWS V13.01,2013-12-13 07:38:00,
2013-12-13 01:43:00,12.2,6.9,29.36,WNW,292,0.0,0.0,79,0.00,,---,0.00,VWS V13.01,2013-12-13 07:43:00,
2013-12-13 01:48:00,12.0,6.8,29.36,North,0,0.0,0.0,79,0.00,,---,0.00,VWS V13.01,2013-12-13 07:48:00,
2013-12-13 01:53:00,12.0,6.8,29.36,North,0,0.0,0.0,79,0.00,,---,0.00,VWS V13.01,2013-12-13 07:53:00,
2013-12-13 01:58:00,12.0,6.8,29.36,WNW,292,0.0,0.0,79,0.00,,---,0.00,VWS V13.01,2013-12-13 07:58:00,
2013-12-13 02:03:00,12.0,6.8,29.36,WNW,292,0.0,0.0,79,0.00,,---,0.00,VWS V13.01,2013-12-13 08:03:00,
2013-12-13 02:08:00,12.0,6.8,29.36,WNW,292,0.0,0.0,79,0.00,,---,0.00,VWS V13.01,2013-12-13 08:08:00,
2013-12-13 02:13:00,12.0,6.8,29.36,WNW,292,0.0,0.0,79,0.00,,---,0.00,VWS V13.01,2013-12-13 08:13:00,
2013-12-13 02:18:00,11.8,6.6,29.36,WNW,292,0.0,0.0,79,0.00,,---,0.00,VWS V13.01,2013-12-13 08:18:00,
2013-12-13 02:24:00,11.8,6.6,29.36,WNW,292,0.0,0.0,79,0.00,,---,0.00,VWS V13.01,2013-12-13 08:24:00,
2013-12-13 02:29:00,11.8,6.6,29.36,WNW,292,0.0,0.0,79,0.00,,---,0.00,VWS V13.01,2013-12-13 08:29:00,
2013-12-13 02:34:00,11.6,6.4,29.35,WNW,292,0.0,0.0,79,0.00,,---,0.00,VWS V13.01,2013-12-13 08:34:00,
2013-12-13 02:39:00,11.4,6.2,29.35,WNW,292,0.0,0.0,79,0.00,,---,0.00,VWS V13.01,2013-12-13 08:39:00,
2013-12-13 02:44:00,11.3,6.1,29.35,North,0,0.0,0.0,79,0.00,,---,0.00,VWS V13.01,2013-12-13 08:44:00,
2013-12-13 02:50:00,11.1,5.9,29.35,WNW,292,0.0,0.0,79,0.00,,---,0.00,VWS V13.01,2013-12-13 08:50:00,
2013-12-13 02:55:00,10.9,5.7,29.35,WNW,292,0.0,0.0,79,0.00,,---,0.00,VWS V13.01,2013-12-13 08:55:00,
2013-12-13 03:00:00,10.9,5.7,29.35,WNW,292,0.0,0.0,79,0.00,,---,0.00,VWS V13.01,2013-12-13 09:00:00,
2013-12-13 03:05:00,10.7,5.5,29.35,WNW,292,0.0,0.0,79,0.00,,---,0.00,VWS V13.01,2013-12-13 09:05:00,
2013-12-13 03:10:00,10.7,5.5,29.35,WNW,292,0.0,0.0,79,0.00,,---,0.00,VWS V13.01,2013-12-13 09:10:00,
2013-12-13 03:16:00,10.7,5.5,29.34,WNW,292,0.0,0.0,79,0.00,,---,0.00,VWS V13.01,2013-12-13 09:16:00,
2013-12-13 03:21:00,10.5,5.3,29.34,WNW,292,0.0,0.0,79,0.00,,---,0.00,VWS V13.01,2013-12-13 09:21:00,
2013-12-13 03:26:00,10.5,5.3,29.34,WNW,292,0.0,0.0,79,0.00,,---,0.00,VWS V13.01,2013-12-13 09:26:00,
2013-12-13 03:31:00,10.5,5.3,29.34,WNW,292,0.0,0.0,79,0.00,,---,0.00,VWS V13.01,2013-12-13 09:31:00,
2013-12-13 03:36:00,10.5,5.3,29.34,WNW,292,0.0,0.0,79,0.00,,---,0.00,VWS V13.01,2013-12-13 09:36:00,
2013-12-13 03:41:00,10.5,5.6,29.34,WNW,292,0.0,0.0,80,0.00,,---,0.00,VWS V13.01,2013-12-13 09:41:00,
2013-12-13 03:47:00,10.5,5.6,29.35,WNW,292,0.0,0.0,80,0.00,,---,0.00,VWS V13.01,2013-12-13 09:47:00,
2013-12-13 03:52:00,10.5,5.6,29.35,WNW,292,0.0,0.0,80,0.00,,---,0.00,VWS V13.01,2013-12-13 09:52:00,
2013-12-13 03:57:00,10.5,5.6,29.34,WNW,292,0.0,0.0,80,0.00,,---,0.00,VWS V13.01,2013-12-13 09:57:00,
2013-12-13 04:02:00,10.5,5.6,29.34,WNW,292,0.0,0.0,80,0.00,,---,0.00,VWS V13.01,2013-12-13 10:02:00,
2013-12-13 04:07:00,10.5,5.6,29.35,WNW,292,0.0,0.0,80,0.00,,---,0.00,VWS V13.01,2013-12-13 10:07:00,
2013-12-13 04:12:00,10.5,5.6,29.34,WNW,292,0.0,0.0,80,0.00,,---,0.00,VWS V13.01,2013-12-13 10:12:00,
2013-12-13 04:17:00,10.5,5.6,29.35,WNW,292,0.0,0.0,80,0.00,,---,0.00,VWS V13.01,2013-12-13 10:17:00,
2013-12-13 04:22:00,10.5,5.6,29.34,WNW,292,0.0,0.0,80,0.00,,---,0.00,VWS V13.01,2013-12-13 10:22:00,
2013-12-13 04:27:00,10.5,5.6,29.34,WNW,292,0.0,0.0,80,0.00,,---,0.00,VWS V13.01,2013-12-13 10:27:00,
2013-12-13 04:32:00,10.5,5.6,29.34,WNW,292,0.0,0.0,80,0.00,,---,0.00,VWS V13.01,2013-12-13 10:32:00,
2013-12-13 04:37:00,10.5,5.6,29.34,WNW,292,0.0,0.0,80,0.00,,---,0.00,VWS V13.01,2013-12-13 10:37:00,
2013-12-13 04:42:00,10.5,5.6,29.34,WNW,292,0.0,0.0,80,0.00,,---,0.00,VWS V13.01,2013-12-13 10:42:00,
2013-12-13 04:47:00,10.5,5.6,29.34,WNW,292,0.0,0.0,80,0.00,,---,0.00,VWS V13.01,2013-12-13 10:47:00,
2013-12-13 04:52:00,10.7,5.8,29.34,WNW,292,0.0,0.0,80,0.00,,---,0.00,VWS V13.01,2013-12-13 10:52:00,
2013-12-13 04:57:00,10.9,5.9,29.33,WNW,292,0.0,0.0,80,0.00,,---,0.00,VWS V13.01,2013-12-13 10:57:00,
2013-12-13 05:02:00,10.9,5.9,29.33,WNW,292,0.0,0.0,80,0.00,,---,0.00,VWS V13.01,2013-12-13 11:02:00,
2013-12-13 05:07:00,11.1,6.4,29.33,WNW,292,0.0,0.0,81,0.00,,---,0.00,VWS V13.01,2013-12-13 11:07:00,
2013-12-13 05:12:00,11.1,6.4,29.33,WNW,292,0.0,0.0,81,0.00,,---,0.00,VWS V13.01,2013-12-13 11:12:00,
2013-12-13 05:17:00,11.1,6.4,29.33,WNW,292,0.0,0.0,81,0.00,,---,0.00,VWS V13.01,2013-12-13 11:17:00,
2013-12-13 05:22:00,11.3,6.6,29.33,WNW,292,0.0,0.0,81,0.00,,---,0.00,VWS V13.01,2013-12-13 11:22:00,
2013-12-13 05:27:00,11.3,6.6,29.33,WNW,292,0.0,0.0,81,0.00,,---,0.00,VWS V13.01,2013-12-13 11:27:00,
2013-12-13 05:32:00,11.4,6.7,29.33,WNW,292,0.0,0.0,81,0.00,,---,0.00,VWS V13.01,2013-12-13 11:32:00,
2013-12-13 05:37:00,11.4,6.7,29.34,WNW,292,0.0,0.0,81,0.00,,---,0.00,VWS V13.01,2013-12-13 11:37:00,
2013-12-13 05:42:00,11.4,6.7,29.33,WNW,292,0.0,0.0,81,0.00,,---,0.00,VWS V13.01,2013-12-13 11:42:00,
2013-12-13 05:47:00,11.4,6.7,29.34,WNW,292,0.0,0.0,81,0.00,,---,0.00,VWS V13.01,2013-12-13 11:47:00,
2013-12-13 05:52:00,11.4,6.7,29.34,WNW,292,0.0,0.0,81,0.00,,---,0.00,VWS V13.01,2013-12-13 11:52:00,
2013-12-13 05:57:00,11.6,6.9,29.34,WNW,292,0.0,0.0,81,0.00,,---,0.00,VWS V13.01,2013-12-13 11:57:00,
2013-12-13 06:02:00,11.6,6.9,29.34,WNW,292,0.0,0.0,81,0.00,,---,0.00,VWS V13.01,2013-12-13 12:02:00,
2013-12-13 06:07:00,11.8,7.1,29.35,WNW,292,0.0,0.0,81,0.00,,---,0.00,VWS V13.01,2013-12-13 12:07:00,
2013-12-13 06:12:00,12.0,7.3,29.35,North,0,0.0,0.0,81,0.00,,---,0.00,VWS V13.01,2013-12-13 12:12:00,
2013-12-13 06:17:00,12.0,7.3,29.34,WNW,292,0.0,0.0,81,0.00,,---,0.00,VWS V13.01,2013-12-13 12:17:00,
2013-12-13 06:22:00,12.0,7.3,29.35,WNW,292,0.0,0.0,81,0.00,,---,0.00,VWS V13.01,2013-12-13 12:22:00,
2013-12-13 06:26:00,12.0,7.3,29.35,WNW,292,0.0,0.0,81,0.00,,---,0.00,VWS V13.01,2013-12-13 12:26:00,
2013-12-13 06:31:00,12.0,7.3,29.35,WNW,292,0.0,0.0,81,0.00,,---,0.00,VWS V13.01,2013-12-13 12:31:00,
2013-12-13 06:36:00,12.0,7.3,29.34,WNW,292,0.0,0.0,81,0.00,,---,0.00,VWS V13.01,2013-12-13 12:36:00,
2013-12-13 06:41:00,12.2,7.5,29.34,WNW,292,0.0,0.0,81,0.00,,---,0.00,VWS V13.01,2013-12-13 12:41:00,
2013-12-13 06:46:00,12.2,7.5,29.34,WNW,292,0.0,0.0,81,0.00,,---,0.00,VWS V13.01,2013-12-13 12:46:00,
2013-12-13 06:51:00,12.2,7.5,29.34,WNW,292,0.0,0.0,81,0.00,,---,0.00,VWS V13.01,2013-12-13 12:51:00,
2013-12-13 06:56:00,12.3,7.6,29.34,WNW,292,0.0,0.0,81,0.00,,---,0.00,VWS V13.01,2013-12-13 12:56:00,
2013-12-13 07:01:00,12.3,7.6,29.34,WNW,292,0.0,0.0,81,0.00,,---,0.00,VWS V13.01,2013-12-13 13:01:00,
2013-12-13 07:06:00,12.3,7.6,29.34,WNW,292,0.0,0.0,81,0.00,,---,0.00,VWS V13.01,2013-12-13 13:06:00,
2013-12-13 07:11:00,12.5,7.8,29.33,WNW,292,0.0,0.0,81,0.00,,---,0.00,VWS V13.01,2013-12-13 13:11:00,
2013-12-13 07:16:00,12.7,8.3,29.33,WNW,292,0.0,0.0,82,0.00,,---,0.00,VWS V13.01,2013-12-13 13:16:00,
2013-12-13 07:21:00,12.7,8.3,29.33,WNW,292,0.0,0.0,82,0.00,,---,0.00,VWS V13.01,2013-12-13 13:21:00,
2013-12-13 07:26:00,12.9,8.4,29.34,WNW,292,0.0,0.0,82,0.00,,---,0.00,VWS V13.01,2013-12-13 13:26:00,
2013-12-13 07:31:00,13.1,8.6,29.34,WNW,292,0.0,0.0,82,0.00,,---,0.00,VWS V13.01,2013-12-13 13:31:00,
2013-12-13 07:36:00,13.1,8.6,29.34,WNW,292,0.0,0.0,82,0.00,,---,0.00,VWS V13.01,2013-12-13 13:36:00,
2013-12-13 07:41:00,13.2,8.8,29.34,WNW,292,0.0,0.0,82,0.00,,---,0.00,VWS V13.01,2013-12-13 13:41:00,
2013-12-13 07:46:00,13.2,8.8,29.34,WNW,292,0.0,0.0,82,0.00,,---,0.00,VWS V13.01,2013-12-13 13:46:00,
2013-12-13 07:51:00,13.4,8.9,29.34,WNW,292,0.0,0.0,82,0.00,,---,0.00,VWS V13.01,2013-12-13 13:51:00,
2013-12-13 07:56:00,13.6,9.1,29.34,WNW,292,0.0,0.0,82,0.00,,---,0.00,VWS V13.01,2013-12-13 13:56:00,
2013-12-13 08:01:00,13.8,9.3,29.34,WNW,292,0.0,0.0,82,0.00,,---,0.00,VWS V13.01,2013-12-13 14:01:00,
2013-12-13 08:06:00,14.0,9.5,29.33,WNW,292,6.6,6.6,82,0.00,,---,0.00,VWS V13.01,2013-12-13 14:06:00,
2013-12-13 08:11:00,14.1,9.6,29.34,WNW,292,0.0,3.4,82,0.00,,---,0.00,VWS V13.01,2013-12-13 14:11:00,
2013-12-13 08:16:00,14.3,10.1,29.35,WNW,292,0.0,0.0,83,0.00,,---,0.00,VWS V13.01,2013-12-13 14:16:00,
2013-12-13 08:21:00,14.5,10.0,29.35,WNW,292,0.0,0.0,82,0.00,,---,0.00,VWS V13.01,2013-12-13 14:21:00,
2013-12-13 08:26:00,14.7,10.2,29.35,WNW,292,8.4,8.4,82,0.00,,---,0.00,VWS V13.01,2013-12-13 14:26:00,
2013-12-13 08:31:00,14.7,10.5,29.35,WNW,292,0.0,0.0,83,0.00,,---,0.00,VWS V13.01,2013-12-13 14:31:00,
2013-12-13 08:36:00,15.0,10.8,29.34,WNW,292,0.0,10.2,83,0.00,,---,0.00,VWS V13.01,2013-12-13 14:36:00,
2013-12-13 08:41:00,15.4,11.2,29.34,WNW,292,11.6,11.6,83,0.00,,---,0.00,VWS V13.01,2013-12-13 14:41:00,
2013-12-13 08:46:00,15.6,11.4,29.34,WNW,292,6.2,6.2,83,0.00,,---,0.00,VWS V13.01,2013-12-13 14:46:00,
2013-12-13 08:51:00,15.9,11.7,29.35,WNW,292,12.4,12.4,83,0.00,,---,0.00,VWS V13.01,2013-12-13 14:51:00,
2013-12-13 08:56:00,16.3,12.1,29.35,WNW,292,0.0,0.0,83,0.00,,---,0.00,VWS V13.01,2013-12-13 14:56:00,
2013-12-13 09:01:00,16.5,12.2,29.35,WNW,292,0.0,7.6,83,0.00,,---,0.00,VWS V13.01,2013-12-13 15:01:00,
2013-12-13 09:06:00,16.8,12.5,29.35,WNW,292,0.0,5.2,83,0.00,,---,0.00,VWS V13.01,2013-12-13 15:06:00,
2013-12-13 09:11:00,17.2,12.7,29.35,WNW,292,10.2,10.2,82,0.00,,---,0.00,VWS V13.01,2013-12-13 15:11:00,
2013-12-13 09:16:00,17.2,12.7,29.35,WNW,292,6.6,9.8,82,0.00,,---,0.00,VWS V13.01,2013-12-13 15:16:00,
2013-12-13 09:21:00,17.4,12.9,29.35,WNW,292,8.4,9.2,82,0.00,,---,0.00,VWS V13.01,2013-12-13 15:21:00,
2013-12-13 09:26:00,17.7,13.1,29.36,WNW,292,14.6,14.6,82,0.00,,---,0.00,VWS V13.01,2013-12-13 15:26:00,
2013-12-13 09:32:00,17.9,13.4,29.36,WNW,292,0.0,6.2,82,0.00,,---,0.00,VWS V13.01,2013-12-13 15:32:00,
2013-12-13 09:37:00,18.1,13.5,29.36,WNW,292,5.8,8.8,82,0.00,,---,0.00,VWS V13.01,2013-12-13 15:37:00,
2013-12-13 09:42:00,18.3,13.7,29.36,WNW,292,10.2,11.6,82,0.00,,---,0.00,VWS V13.01,2013-12-13 15:42:00,
2013-12-13 09:47:00,18.5,13.9,29.36,WNW,292,9.8,9.8,82,0.00,,---,0.00,VWS V13.01,2013-12-13 15:47:00,
2013-12-13 09:53:00,18.6,13.8,29.36,WNW,292,14.6,14.6,81,0.00,,---,0.00,VWS V13.01,2013-12-13 15:53:00,
2013-12-13 09:58:00,18.6,13.8,29.35,WNW,292,18.6,18.6,81,0.00,,---,0.00,VWS V13.01,2013-12-13 15:58:00,
2013-12-13 10:03:00,18.8,13.9,29.35,WNW,292,9.2,12.4,81,0.00,,---,0.00,VWS V13.01,2013-12-13 16:03:00,
2013-12-13 10:08:00,19.0,14.1,29.35,WNW,292,18.2,18.2,81,0.00,,---,0.00,VWS V13.01,2013-12-13 16:08:00,
2013-12-13 10:13:00,19.2,14.3,29.35,WNW,292,14.2,20.0,81,0.00,,---,0.00,VWS V13.01,2013-12-13 16:13:00,
2013-12-13 10:18:00,19.4,14.2,29.35,WNW,292,9.2,16.4,80,0.00,,---,0.00,VWS V13.01,2013-12-13 16:18:00,
2013-12-13 10:23:00,19.5,14.4,29.35,WNW,292,13.8,13.8,80,0.00,,---,0.00,VWS V13.01,2013-12-13 16:23:00,
2013-12-13 10:28:00,19.5,14.4,29.34,WNW,292,10.6,10.6,80,0.00,,---,0.00,VWS V13.01,2013-12-13 16:28:00,
2013-12-13 10:33:00,19.5,14.4,29.35,WNW,292,17.8,17.8,80,0.00,,---,0.00,VWS V13.01,2013-12-13 16:33:00,
2013-12-13 10:38:00,19.5,14.1,29.35,WNW,292,21.8,21.8,79,0.00,,---,0.00,VWS V13.01,2013-12-13 16:38:00,
2013-12-13 10:43:00,19.5,14.1,29.35,WNW,292,7.6,18.2,79,0.00,,---,0.00,VWS V13.01,2013-12-13 16:43:00,
2013-12-13 10:48:00,19.5,14.1,29.35,WNW,292,14.6,15.6,79,0.00,,---,0.00,VWS V13.01,2013-12-13 16:48:00,
2013-12-13 10:53:00,19.5,14.1,29.35,WNW,292,8.8,12.0,79,0.00,,---,0.00,VWS V13.01,2013-12-13 16:53:00,
2013-12-13 10:58:00,19.9,14.4,29.34,WNW,292,10.6,17.0,79,0.00,,---,0.00,VWS V13.01,2013-12-13 16:58:00,
2013-12-13 11:03:00,20.3,14.8,29.34,WNW,292,12.0,12.8,79,0.00,,---,0.00,VWS V13.01,2013-12-13 17:03:00,
2013-12-13 11:08:00,20.3,14.8,29.34,WNW,292,0.0,15.2,79,0.00,,---,0.00,VWS V13.01,2013-12-13 17:08:00,
2013-12-13 11:13:00,20.4,14.6,29.33,WNW,292,14.6,14.6,78,0.00,,---,0.00,VWS V13.01,2013-12-13 17:13:00,
2013-12-13 11:18:00,20.4,14.6,29.33,WNW,292,10.6,11.0,78,0.00,,---,0.00,VWS V13.01,2013-12-13 17:18:00,
2013-12-13 11:23:00,20.8,15.0,29.33,WNW,292,13.4,13.4,78,0.00,,---,0.00,VWS V13.01,2013-12-13 17:23:00,
2013-12-13 11:28:00,21.0,15.2,29.32,WNW,292,11.0,11.0,78,0.00,,---,0.00,VWS V13.01,2013-12-13 17:28:00,
2013-12-13 11:33:00,21.0,15.2,29.32,WNW,292,17.4,17.4,78,0.00,,---,0.00,VWS V13.01,2013-12-13 17:33:00,
2013-12-13 11:38:00,21.3,15.2,29.32,WNW,292,10.6,10.6,77,0.00,,---,0.00,VWS V13.01,2013-12-13 17:38:00,
2013-12-13 11:43:00,21.5,15.4,29.31,WNW,292,17.4,17.4,77,0.00,,---,0.00,VWS V13.01,2013-12-13 17:43:00,
2013-12-13 11:48:00,21.7,15.6,29.31,WNW,292,8.0,16.4,77,0.00,,---,0.00,VWS V13.01,2013-12-13 17:48:00,
2013-12-13 11:53:00,22.1,16.0,29.30,WNW,292,8.8,15.6,77,0.00,,---,0.00,VWS V13.01,2013-12-13 17:53:00,
2013-12-13 11:58:00,22.4,16.3,29.30,WNW,292,11.0,11.0,77,0.00,,---,0.00,VWS V13.01,2013-12-13 17:58:00,
2013-12-13 12:03:00,22.8,16.4,29.30,WNW,292,16.4,16.4,76,0.00,,---,0.00,VWS V13.01,2013-12-13 18:03:00,
2013-12-13 12:08:00,22.8,16.4,29.30,WNW,292,9.8,9.8,76,0.00,,---,0.00,VWS V13.01,2013-12-13 18:08:00,
2013-12-13 12:13:00,23.1,16.4,29.30,WNW,292,0.0,12.8,75,0.00,,---,0.00,VWS V13.01,2013-12-13 18:13:00,
2013-12-13 12:18:00,23.1,16.4,29.30,WNW,292,10.6,12.0,75,0.00,,---,0.00,VWS V13.01,2013-12-13 18:18:00,
2013-12-13 12:23:00,23.3,16.6,29.30,WNW,292,13.4,14.6,75,0.00,,---,0.00,VWS V13.01,2013-12-13 18:23:00,
2013-12-13 12:28:00,23.5,16.8,29.29,WNW,292,12.4,15.6,75,0.00,,---,0.00,VWS V13.01,2013-12-13 18:28:00,
2013-12-13 12:33:00,23.7,17.0,29.30,North,0,0.0,21.8,75,0.00,,---,0.00,VWS V13.01,2013-12-13 18:33:00,
2013-12-13 12:38:00,24.0,16.9,29.30,WNW,292,9.2,12.4,74,0.00,,---,0.00,VWS V13.01,2013-12-13 18:38:00,
2013-12-13 12:43:00,24.4,17.3,29.30,WNW,292,21.0,21.0,74,0.00,,---,0.00,VWS V13.01,2013-12-13 18:43:00,
2013-12-13 12:48:00,24.4,17.0,29.30,WNW,292,19.6,19.6,73,0.00,,---,0.00,VWS V13.01,2013-12-13 18:48:00,
2013-12-13 12:53:00,24.4,17.0,29.30,WNW,292,5.8,27.6,73,0.00,,---,0.00,VWS V13.01,2013-12-13 18:53:00,
2013-12-13 12:58:00,24.6,17.2,29.30,WNW,292,3.0,10.6,73,0.00,,---,0.00,VWS V13.01,2013-12-13 18:58:00,
2013-12-13 13:03:00,24.9,17.5,29.30,WNW,292,17.0,17.0,73,0.00,,---,0.00,VWS V13.01,2013-12-13 19:03:00,
2013-12-13 13:08:00,24.9,17.2,29.29,WNW,292,9.8,18.6,72,0.00,,---,0.00,VWS V13.01,2013-12-13 19:08:00,
2013-12-13 13:13:00,24.6,16.9,29.29,WNW,292,6.2,9.8,72,0.00,,---,0.00,VWS V13.01,2013-12-13 19:13:00,
2013-12-13 13:18:00,24.4,16.7,29.29,WNW,292,11.0,15.6,72,0.00,,---,0.00,VWS V13.01,2013-12-13 19:18:00,
2013-12-13 13:23:00,24.0,16.3,29.28,WNW,292,11.0,21.8,72,0.00,,---,0.00,VWS V13.01,2013-12-13 19:23:00,
2013-12-13 13:28:00,23.7,16.0,29.28,WNW,292,13.8,13.8,72,0.00,,---,0.00,VWS V13.01,2013-12-13 19:28:00,
2013-12-13 13:33:00,23.5,15.8,29.28,WNW,292,8.8,8.8,72,0.00,,---,0.00,VWS V13.01,2013-12-13 19:33:00,
2013-12-13 13:38:00,23.3,15.9,29.28,WNW,292,6.6,11.0,73,0.00,,---,0.00,VWS V13.01,2013-12-13 19:38:00,
2013-12-13 13:43:00,23.5,16.1,29.27,WNW,292,11.6,11.6,73,0.00,,---,0.00,VWS V13.01,2013-12-13 19:43:00,
2013-12-13 13:48:00,23.5,16.1,29.27,WNW,292,13.8,13.8,73,0.00,,---,0.00,VWS V13.01,2013-12-13 19:48:00,
2013-12-13 13:53:00,23.5,16.1,29.27,WNW,292,9.2,9.2,73,0.00,,---,0.00,VWS V13.01,2013-12-13 19:53:00,
2013-12-13 13:58:00,23.5,16.1,29.27,WNW,292,14.6,14.6,73,0.00,,---,0.00,VWS V13.01,2013-12-13 19:58:00,
2013-12-13 14:03:00,23.5,16.1,29.27,WNW,292,3.0,3.0,73,0.00,,---,0.00,VWS V13.01,2013-12-13 20:03:00,
2013-12-13 14:08:00,23.5,16.1,29.27,WNW,292,14.6,14.6,73,0.00,,---,0.00,VWS V13.01,2013-12-13 20:08:00,
2013-12-13 14:13:00,23.5,16.1,29.27,WNW,292,10.6,10.6,73,0.00,,---,0.00,VWS V13.01,2013-12-13 20:13:00,
2013-12-13 14:18:00,23.5,16.1,29.27,WNW,292,0.0,0.0,73,0.00,,---,0.00,VWS V13.01,2013-12-13 20:18:00,
2013-12-13 14:23:00,23.3,15.9,29.27,WNW,292,10.2,10.2,73,0.00,,---,0.00,VWS V13.01,2013-12-13 20:23:00,
2013-12-13 14:28:00,23.5,16.1,29.26,WNW,292,7.6,7.6,73,0.00,,---,0.00,VWS V13.01,2013-12-13 20:28:00,
2013-12-13 14:33:00,23.5,15.8,29.26,WNW,292,16.4,16.4,72,0.00,,---,0.00,VWS V13.01,2013-12-13 20:33:00,
2013-12-13 14:38:00,23.5,15.8,29.26,WNW,292,13.4,13.4,72,0.00,,---,0.00,VWS V13.01,2013-12-13 20:38:00,
2013-12-13 14:43:00,23.5,15.8,29.26,WNW,292,4.0,4.0,72,0.00,,---,0.00,VWS V13.01,2013-12-13 20:43:00,
2013-12-13 14:48:00,23.5,15.8,29.25,WNW,292,12.4,12.4,72,0.00,,---,0.00,VWS V13.01,2013-12-13 20:48:00,
2013-12-13 14:54:00,23.5,15.8,29.25,WNW,292,9.2,9.2,72,0.00,,---,0.00,VWS V13.01,2013-12-13 20:54:00,
2013-12-13 14:59:00,23.5,15.8,29.25,WNW,292,13.4,13.4,72,0.00,,---,0.00,VWS V13.01,2013-12-13 20:59:00,
2013-12-13 15:04:00,23.1,15.4,29.25,WNW,292,5.2,5.2,72,0.00,,---,0.00,VWS V13.01,2013-12-13 21:04:00,
2013-12-13 15:09:00,23.0,15.3,29.24,WNW,292,10.2,10.2,72,0.00,,---,0.00,VWS V13.01,2013-12-13 21:09:00,
2013-12-13 15:14:00,22.8,15.1,29.24,WNW,292,8.8,8.8,72,0.00,,---,0.00,VWS V13.01,2013-12-13 21:14:00,
2013-12-13 15:19:00,22.8,15.1,29.24,WNW,292,0.0,10.6,72,0.00,,---,0.00,VWS V13.01,2013-12-13 21:19:00,
2013-12-13 15:24:00,22.8,15.5,29.24,WNW,292,0.0,0.0,73,0.00,,---,0.00,VWS V13.01,2013-12-13 21:24:00,
2013-12-13 15:29:00,22.6,15.3,29.25,WNW,292,7.6,7.6,73,0.00,,---,0.00,VWS V13.01,2013-12-13 21:29:00,
2013-12-13 15:34:00,22.2,14.9,29.24,WNW,292,5.8,5.8,73,0.00,,---,0.00,VWS V13.01,2013-12-13 21:34:00,
2013-12-13 15:39:00,22.1,14.8,29.24,WNW,292,0.0,11.6,73,0.00,,---,0.00,VWS V13.01,2013-12-13 21:39:00,
2013-12-13 15:44:00,21.9,14.6,29.25,WNW,292,4.8,12.4,73,0.00,,---,0.00,VWS V13.01,2013-12-13 21:44:00,
2013-12-13 15:49:00,21.9,14.6,29.25,WNW,292,7.0,8.8,73,0.00,,---,0.00,VWS V13.01,2013-12-13 21:49:00,
2013-12-13 15:54:00,21.9,14.6,29.25,WNW,292,0.0,0.0,73,0.00,,---,0.00,VWS V13.01,2013-12-13 21:54:00,
2013-12-13 15:59:00,21.7,14.4,29.24,WNW,292,0.0,0.0,73,0.00,,---,0.00,VWS V13.01,2013-12-13 21:59:00,
2013-12-13 16:04:00,21.7,14.4,29.25,WNW,292,0.0,0.0,73,0.00,,---,0.00,VWS V13.01,2013-12-13 22:04:00,
2013-12-13 16:10:00,21.5,14.2,29.25,WNW,292,0.0,0.0,73,0.00,,---,0.00,VWS V13.01,2013-12-13 22:10:00,
2013-12-13 16:15:00,21.3,14.0,29.25,WNW,292,0.0,0.0,73,0.00,,---,0.00,VWS V13.01,2013-12-13 22:15:00,
2013-12-13 16:20:00,21.3,14.0,29.25,WNW,292,4.0,4.0,73,0.00,,---,0.00,VWS V13.01,2013-12-13 22:20:00,
2013-12-13 16:25:00,21.0,13.7,29.25,WNW,292,0.0,0.0,73,0.00,,---,0.00,VWS V13.01,2013-12-13 22:25:00,
2013-12-13 16:30:00,20.8,13.8,29.25,WNW,292,0.0,0.0,74,0.00,,---,0.00,VWS V13.01,2013-12-13 22:30:00,
2013-12-13 16:35:00,20.8,13.8,29.25,WNW,292,0.0,0.0,74,0.00,,---,0.00,VWS V13.01,2013-12-13 22:35:00,
2013-12-13 16:40:00,20.4,13.4,29.25,WNW,292,0.0,0.0,74,0.00,,---,0.00,VWS V13.01,2013-12-13 22:40:00,
2013-12-13 16:45:00,20.4,13.4,29.26,WNW,292,0.0,0.0,74,0.00,,---,0.00,VWS V13.01,2013-12-13 22:45:00,
2013-12-13 16:50:00,20.3,13.4,29.26,WNW,292,0.0,0.0,74,0.00,,---,0.00,VWS V13.01,2013-12-13 22:50:00,
2013-12-13 16:55:00,20.1,13.2,29.26,WNW,292,0.0,0.0,74,0.00,,---,0.00,VWS V13.01,2013-12-13 22:55:00,
2013-12-13 17:00:00,20.1,13.2,29.26,WNW,292,0.0,0.0,74,0.00,,---,0.00,VWS V13.01,2013-12-13 23:00:00,
2013-12-13 17:05:00,19.9,13.0,29.27,North,0,0.0,0.0,74,0.00,,---,0.00,VWS V13.01,2013-12-13 23:05:00,
2013-12-13 17:10:00,19.9,13.0,29.27,WNW,292,0.0,0.0,74,0.00,,---,0.00,VWS V13.01,2013-12-13 23:10:00,
2013-12-13 17:15:00,19.7,12.8,29.27,WNW,292,0.0,0.0,74,0.00,,---,0.00,VWS V13.01,2013-12-13 23:15:00,
2013-12-13 17:20:00,19.7,12.8,29.27,WNW,292,0.0,0.0,74,0.00,,---,0.00,VWS V13.01,2013-12-13 23:20:00,
2013-12-13 17:25:00,19.5,12.6,29.27,WNW,292,0.0,0.0,74,0.00,,---,0.00,VWS V13.01,2013-12-13 23:25:00,
2013-12-13 17:30:00,19.5,12.6,29.27,WNW,292,0.0,0.0,74,0.00,,---,0.00,VWS V13.01,2013-12-13 23:30:00,
2013-12-13 17:35:00,19.5,12.9,29.27,WNW,292,0.0,0.0,75,0.00,,---,0.00,VWS V13.01,2013-12-13 23:35:00,
2013-12-13 17:41:00,19.5,12.9,29.28,WNW,292,0.0,0.0,75,0.00,,---,0.00,VWS V13.01,2013-12-13 23:41:00,
2013-12-13 17:46:00,19.4,12.8,29.28,WNW,292,0.0,0.0,75,0.00,,---,0.00,VWS V13.01,2013-12-13 23:46:00,
2013-12-13 17:51:00,19.5,12.9,29.28,WNW,292,0.0,0.0,75,0.00,,---,0.00,VWS V13.01,2013-12-13 23:51:00,
2013-12-13 17:56:00,19.4,12.8,29.28,WNW,292,0.0,0.0,75,0.00,,---,0.00,VWS V13.01,2013-12-13 23:56:00,
2013-12-13 18:01:00,19.5,12.9,29.28,WNW,292,0.0,0.0,75,0.00,,---,0.00,VWS V13.01,2013-12-14 00:01:00,
2013-12-13 18:07:00,19.5,12.9,29.29,WNW,292,0.0,4.0,75,0.00,,---,0.00,VWS V13.01,2013-12-14 00:07:00,
2013-12-13 18:12:00,19.5,12.9,29.28,WNW,292,7.6,7.6,75,0.00,,---,0.00,VWS V13.01,2013-12-14 00:12:00,
2013-12-13 18:17:00,19.5,12.9,29.28,WNW,292,0.0,4.4,75,0.00,,---,0.00,VWS V13.01,2013-12-14 00:17:00,
2013-12-13 18:23:00,19.5,12.9,29.28,WNW,292,0.0,0.0,75,0.00,,---,0.00,VWS V13.01,2013-12-14 00:23:00,
2013-12-13 18:29:00,19.5,12.9,29.28,WNW,292,7.0,7.0,75,0.00,,---,0.00,VWS V13.01,2013-12-14 00:29:00,
2013-12-13 18:34:00,19.5,12.9,29.29,WNW,292,0.0,4.4,75,0.00,,---,0.00,VWS V13.01,2013-12-14 00:34:00,
2013-12-13 18:39:00,19.5,12.9,29.29,WNW,292,0.0,0.0,75,0.00,,---,0.00,VWS V13.01,2013-12-14 00:39:00,
2013-12-13 18:44:00,19.5,12.6,29.29,WNW,292,11.0,11.0,74,0.00,,---,0.00,VWS V13.01,2013-12-14 00:44:00,
2013-12-13 18:49:00,19.5,12.6,29.29,WNW,292,0.0,0.0,74,0.00,,---,0.00,VWS V13.01,2013-12-14 00:49:00,
2013-12-13 18:54:00,19.5,12.6,29.29,WNW,292,0.0,0.0,74,0.00,,---,0.00,VWS V13.01,2013-12-14 00:54:00,
2013-12-13 18:59:00,19.5,12.6,29.30,WNW,292,0.0,12.0,74,0.00,,---,0.00,VWS V13.01,2013-12-14 00:59:00,
2013-12-13 19:04:00,19.5,12.6,29.29,WNW,292,0.0,7.0,74,0.00,,---,0.00,VWS V13.01,2013-12-14 01:04:00,
2013-12-13 19:09:00,19.7,12.8,29.30,WNW,292,0.0,0.0,74,0.00,,---,0.00,VWS V13.01,2013-12-14 01:09:00,
2013-12-13 19:14:00,19.5,12.6,29.29,WNW,292,0.0,8.8,74,0.00,,---,0.00,VWS V13.01,2013-12-14 01:14:00,
2013-12-13 19:15:00,19.5,12.6,29.30,WNW,292,4.4,4.4,74,0.00,,---,0.00,VWS V13.01,2013-12-14 01:15:00,
2013-12-13 19:21:00,19.5,12.6,29.30,WNW,292,16.0,16.0,74,0.00,,---,0.00,VWS V13.01,2013-12-14 01:21:00,
2013-12-13 19:26:00,19.5,12.6,29.29,WNW,292,7.6,14.2,74,0.00,,---,0.00,VWS V13.01,2013-12-14 01:26:00,
2013-12-13 19:31:00,19.5,12.6,29.29,WNW,292,8.4,8.4,74,0.00,,---,0.00,VWS V13.01,2013-12-14 01:31:00,
2013-12-13 19:36:00,19.5,12.6,29.30,WNW,292,0.0,4.4,74,0.00,,---,0.00,VWS V13.01,2013-12-14 01:36:00,
2013-12-13 19:41:00,19.5,12.6,29.30,WNW,292,14.6,14.6,74,0.00,,---,0.00,VWS V13.01,2013-12-14 01:41:00,
2013-12-13 19:46:00,19.5,12.6,29.30,WNW,292,0.0,0.0,74,0.00,,---,0.00,VWS V13.01,2013-12-14 01:46:00,
2013-12-13 19:51:00,19.5,12.6,29.30,WNW,292,5.8,5.8,74,0.00,,---,0.00,VWS V13.01,2013-12-14 01:51:00,
2013-12-13 19:56:00,19.5,12.6,29.30,WNW,292,0.0,0.0,74,0.00,,---,0.00,VWS V13.01,2013-12-14 01:56:00,
2013-12-13 20:01:00,19.5,12.6,29.30,WNW,292,12.8,12.8,74,0.00,,---,0.00,VWS V13.01,2013-12-14 02:01:00,
2013-12-13 20:06:00,19.5,12.6,29.30,WNW,292,6.2,6.2,74,0.00,,---,0.00,VWS V13.01,2013-12-14 02:06:00,
2013-12-13 20:11:00,19.5,12.6,29.30,WNW,292,0.0,0.0,74,0.00,,---,0.00,VWS V13.01,2013-12-14 02:11:00,
2013-12-13 20:16:00,19.5,12.6,29.30,WNW,292,9.8,9.8,74,0.00,,---,0.00,VWS V13.01,2013-12-14 02:16:00,
2013-12-13 20:21:00,19.5,12.6,29.30,WNW,292,0.0,0.0,74,0.00,,---,0.00,VWS V13.01,2013-12-14 02:21:00,
2013-12-13 20:26:00,19.4,12.5,29.30,WNW,292,0.0,0.0,74,0.00,,---,0.00,VWS V13.01,2013-12-14 02:26:00,
2013-12-13 20:31:00,19.4,12.5,29.30,WNW,292,0.0,0.0,74,0.00,,---,0.00,VWS V13.01,2013-12-14 02:31:00,
2013-12-13 20:36:00,19.4,12.5,29.30,WNW,292,4.8,8.0,74,0.00,,---,0.00,VWS V13.01,2013-12-14 02:36:00,
2013-12-13 20:41:00,19.4,12.5,29.30,WNW,292,0.0,0.0,74,0.00,,---,0.00,VWS V13.01,2013-12-14 02:41:00,
2013-12-13 20:46:00,19.2,12.3,29.30,WNW,292,7.6,12.0,74,0.00,,---,0.00,VWS V13.01,2013-12-14 02:46:00,
2013-12-13 20:51:00,19.2,12.3,29.30,WNW,292,3.0,3.0,74,0.00,,---,0.00,VWS V13.01,2013-12-14 02:51:00,
2013-12-13 20:56:00,19.2,12.3,29.30,WNW,292,2.6,2.6,74,0.00,,---,0.00,VWS V13.01,2013-12-14 02:56:00,
2013-12-13 21:01:00,19.2,12.3,29.30,WNW,292,0.0,0.0,74,0.00,,---,0.00,VWS V13.01,2013-12-14 03:01:00,
2013-12-13 21:06:00,19.2,12.3,29.30,WNW,292,8.4,10.2,74,0.00,,---,0.00,VWS V13.01,2013-12-14 03:06:00,
2013-12-13 21:11:00,19.2,12.3,29.30,WNW,292,5.8,14.2,74,0.00,,---,0.00,VWS V13.01,2013-12-14 03:11:00,
2013-12-13 21:16:00,19.2,12.3,29.30,WNW,292,11.0,11.0,74,0.00,,---,0.00,VWS V13.01,2013-12-14 03:16:00,
2013-12-13 21:21:00,19.0,12.1,29.30,WNW,292,0.0,4.8,74,0.00,,---,0.00,VWS V13.01,2013-12-14 03:21:00,
2013-12-13 21:26:00,19.0,12.1,29.30,WNW,292,6.2,12.4,74,0.00,,---,0.00,VWS V13.01,2013-12-14 03:26:00,
2013-12-13 21:31:00,19.0,12.1,29.30,WNW,292,0.0,11.0,74,0.00,,---,0.00,VWS V13.01,2013-12-14 03:31:00,
2013-12-13 21:36:00,19.0,12.1,29.30,WNW,292,14.2,18.2,74,0.00,,---,0.00,VWS V13.01,2013-12-14 03:36:00,
2013-12-13 21:41:00,18.8,11.9,29.30,WNW,292,7.0,8.0,74,0.00,,---,0.00,VWS V13.01,2013-12-14 03:41:00,
2013-12-13 21:46:00,19.0,12.1,29.29,WNW,292,6.2,13.4,74,0.00,,---,0.00,VWS V13.01,2013-12-14 03:46:00,
2013-12-13 21:51:00,18.8,12.2,29.30,WNW,292,8.0,8.0,75,0.00,,---,0.00,VWS V13.01,2013-12-14 03:51:00,
2013-12-13 21:56:00,18.8,12.2,29.30,WNW,292,4.0,4.0,75,0.00,,---,0.00,VWS V13.01,2013-12-14 03:56:00,
2013-12-13 22:01:00,18.8,12.2,29.30,WNW,292,0.0,5.2,75,0.00,,---,0.00,VWS V13.01,2013-12-14 04:01:00,
2013-12-13 22:06:00,18.8,12.2,29.30,WNW,292,0.0,4.8,75,0.00,,---,0.00,VWS V13.01,2013-12-14 04:06:00,
2013-12-13 22:11:00,18.8,12.2,29.30,WNW,292,6.2,6.2,75,0.00,,---,0.00,VWS V13.01,2013-12-14 04:11:00,
2013-12-13 22:16:00,18.8,12.2,29.31,WNW,292,0.0,4.0,75,0.00,,---,0.00,VWS V13.01,2013-12-14 04:16:00,
2013-12-13 22:21:00,18.6,12.0,29.31,WNW,292,0.0,0.0,75,0.00,,---,0.00,VWS V13.01,2013-12-14 04:21:00,
2013-12-13 22:26:00,18.6,12.0,29.31,WNW,292,16.0,16.0,75,0.00,,---,0.00,VWS V13.01,2013-12-14 04:26:00,
2013-12-13 22:31:00,18.6,12.0,29.31,WNW,292,4.8,10.6,75,0.00,,---,0.00,VWS V13.01,2013-12-14 04:31:00,
2013-12-13 22:36:00,18.6,12.0,29.31,WNW,292,8.4,8.4,75,0.00,,---,0.00,VWS V13.01,2013-12-14 04:36:00,
2013-12-13 22:41:00,18.5,11.9,29.31,WNW,292,4.0,10.6,75,0.00,,---,0.00,VWS V13.01,2013-12-14 04:41:00,
2013-12-13 22:46:00,18.5,11.9,29.32,WNW,292,8.4,8.4,75,0.00,,---,0.00,VWS V13.01,2013-12-14 04:46:00,
2013-12-13 22:51:00,18.3,11.7,29.31,WNW,292,5.8,7.0,75,0.00,,---,0.00,VWS V13.01,2013-12-14 04:51:00,
2013-12-13 22:56:00,18.3,11.7,29.31,WNW,292,12.4,15.2,75,0.00,,---,0.00,VWS V13.01,2013-12-14 04:56:00,
2013-12-13 23:01:00,18.1,11.8,29.31,WNW,292,0.0,12.4,76,0.00,,---,0.00,VWS V13.01,2013-12-14 05:01:00,
2013-12-13 23:02:00,18.1,11.8,29.32,WNW,292,4.4,4.4,76,0.00,,---,0.00,VWS V13.01,2013-12-14 05:02:00,
2013-12-13 23:03:00,18.1,11.8,29.32,WNW,292,0.0,4.4,76,0.00,,---,0.00,VWS V13.01,2013-12-14 05:03:00,
2013-12-13 23:04:00,18.1,11.8,29.32,WNW,292,0.0,0.0,76,0.00,,---,0.00,VWS V13.01,2013-12-14 05:04:00,
2013-12-13 23:10:00,18.1,11.8,29.32,WNW,292,0.0,0.0,76,0.00,,---,0.00,VWS V13.01,2013-12-14 05:10:00,
2013-12-13 23:15:00,17.9,11.6,29.32,WNW,292,0.0,0.0,76,0.00,,---,0.00,VWS V13.01,2013-12-14 05:15:00,
2013-12-13 23:17:00,18.1,11.8,29.32,WNW,292,10.6,10.6,76,0.00,,---,0.00,VWS V13.01,2013-12-14 05:17:00,
2013-12-13 23:22:00,17.9,11.6,29.32,WNW,292,0.0,0.0,76,0.00,,---,0.00,VWS V13.01,2013-12-14 05:22:00,
2013-12-13 23:27:00,17.9,11.6,29.32,WNW,292,6.6,6.6,76,0.00,,---,0.00,VWS V13.01,2013-12-14 05:27:00,
2013-12-13 23:32:00,17.7,11.7,29.32,WNW,292,0.0,0.0,77,0.00,,---,0.00,VWS V13.01,2013-12-14 05:32:00,
2013-12-13 23:37:00,17.7,11.7,29.32,WNW,292,9.2,12.8,77,0.00,,---,0.00,VWS V13.01,2013-12-14 05:37:00,
2013-12-13 23:42:00,17.7,11.7,29.32,WNW,292,5.8,5.8,77,0.00,,---,0.00,VWS V13.01,2013-12-14 05:42:00,
2013-12-13 23:47:00,17.7,11.7,29.32,WNW,292,0.0,0.0,77,0.00,,---,0.00,VWS V13.01,2013-12-14 05:47:00,
2013-12-13 23:52:00,17.4,11.4,29.32,WNW,292,0.0,0.0,77,0.00,,---,0.00,VWS V13.01,2013-12-14 05:52:00,
2013-12-13 23:57:00,17.4,11.4,29.32,WNW,292,0.0,8.4,77,0.00,,---,0.00,VWS V13.01,2013-12-14 05:57:00,